Time;durP1;ratioP1;P1;durP2;ratioP2;P2;SDS_P1;SDS_P2;PMS_P1;PMS_P2;Temp;Humidity;BMP_temperature;BMP_pressure;BME280_temperature;BME280_humidity;BME280_pressure;Samples;Min_cycle;Max_cycle;Signal;HPM_P1;HPM_P2
2023/10/13 00:02:06;;;;;;;73.43;43.00;;;15.60;99.90;;;;;;4959701;28;89311;-33
2023/10/13 00:04:35;;;;;;;76.88;42.17;;;15.70;99.90;;;;;;4978033;28;89383;-31
2023/10/13 00:07:02;;;;;;;74.35;41.00;;;15.70;99.90;;;;;;4971775;28;89826;-33
2023/10/13 00:09:37;;;;;;;74.00;40.88;;;15.70;99.90;;;;;;4970239;28;90321;-33
2023/10/13 00:12:09;;;;;;;72.20;43.00;;;15.70;99.90;;;;;;4970905;28;89844;-34
2023/10/13 00:14:34;;;;;;;71.53;41.15;;;15.80;99.90;;;;;;4957381;28;89474;-31
2023/10/13 00:17:03;;;;;;;67.68;40.95;;;15.80;99.90;;;;;;4957986;28;90259;-32
2023/10/13 00:19:45;;;;;;;61.75;38.28;;;15.80;99.90;;;;;;4958209;28;89383;-32
2023/10/13 00:22:12;;;;;;;68.55;40.78;;;15.90;99.90;;;;;;4940575;28;90224;-34
2023/10/13 00:24:51;;;;;;;59.30;36.03;;;15.90;99.90;;;;;;4940278;28;88533;-35
2023/10/13 00:27:52;;;;;;;57.95;36.78;;;15.90;99.90;;;;;;4943231;28;90360;-31
2023/10/13 00:32:46;;;;;;;54.35;33.40;;;16.00;99.90;;;;;;4961020;28;90114;-32
2023/10/13 00:35:24;;;;;;;47.22;32.83;;;16.10;99.90;;;;;;4961208;28;90413;-31
2023/10/13 00:37:53;;;;;;;54.67;34.83;;;16.10;99.90;;;;;;4961217;28;89160;-32
2023/10/13 00:45:43;;;;;;;55.58;34.17;;;16.10;99.90;;;;;;4962662;28;89678;-34
2023/10/13 00:48:14;;;;;;;58.20;35.33;;;16.10;99.90;;;;;;4980793;28;89873;-33
2023/10/13 00:50:41;;;;;;;54.28;33.25;;;16.10;99.90;;;;;;4979398;28;89886;-33
2023/10/13 00:53:08;;;;;;;54.50;36.30;;;16.10;99.90;;;;;;4980439;28;91055;-34
2023/10/13 00:55:34;;;;;;;54.92;34.58;;;16.10;99.90;;;;;;4979051;28;88754;-33
2023/10/13 00:58:03;;;;;;;52.85;34.47;;;16.20;99.90;;;;;;4980552;28;90160;-32
2023/10/13 01:00:32;;;;;;;55.38;35.75;;;16.20;99.90;;;;;;4979933;28;90855;-34
2023/10/13 01:03:06;;;;;;;52.50;34.10;;;16.20;99.90;;;;;;4980247;28;90592;-31
2023/10/13 01:05:33;;;;;;;43.00;33.92;;;16.20;99.90;;;;;;4966698;28;89110;-34
2023/10/13 01:08:03;;;;;;;57.75;35.83;;;16.20;99.90;;;;;;4961581;28;90183;-34
2023/10/13 01:10:32;;;;;;;55.40;33.78;;;16.20;99.90;;;;;;4979995;28;90209;-33
2023/10/13 01:12:59;;;;;;;55.10;33.88;;;16.20;99.90;;;;;;4980273;28;90108;-34
2023/10/13 01:15:29;;;;;;;65.07;38.13;;;16.20;99.90;;;;;;4963130;28;88255;-33
2023/10/13 01:18:11;;;;;;;58.60;35.60;;;16.20;99.90;;;;;;4960145;28;90643;-33
2023/10/13 01:20:43;;;;;;;57.50;36.15;;;16.20;99.90;;;;;;4967560;28;89845;-33
2023/10/13 01:23:19;;;;;;;50.92;34.08;;;16.20;99.90;;;;;;4965989;28;88217;-32
2023/10/13 01:25:45;;;;;;;53.30;35.40;;;16.20;99.90;;;;;;4959715;28;89459;-34
2023/10/13 01:28:16;;;;;;;52.20;35.35;;;16.20;99.90;;;;;;4960610;28;90126;-32
2023/10/13 01:30:49;;;;;;;54.38;35.75;;;16.20;99.90;;;;;;4961044;28;89816;-34
2023/10/13 01:33:26;;;;;;;50.10;33.60;;;16.20;99.90;;;;;;4960048;28;89378;-35
2023/10/13 01:35:55;;;;;;;47.58;32.42;;;16.20;99.90;;;;;;4973647;28;89800;-35
2023/10/13 01:38:20;;;;;;;;;;;16.30;99.90;;;;;;4960525;28;90353;-32
2023/10/13 01:40:51;;;;;;;52.47;34.60;;;16.30;99.90;;;;;;4961737;28;89059;-33
2023/10/13 01:43:17;;;;;;;48.28;31.67;;;16.20;99.90;;;;;;4968949;28;89270;-33
2023/10/13 01:45:49;;;;;;;53.05;31.35;;;16.20;99.90;;;;;;4977472;28;89157;-35
2023/10/13 01:48:21;;;;;;;55.90;33.58;;;16.30;99.90;;;;;;4979141;28;90103;-33
2023/10/13 01:50:59;;;;;;;52.85;34.10;;;16.30;99.90;;;;;;4978041;28;90236;-34
2023/10/13 01:53:28;;;;;;;50.88;35.63;;;16.30;99.90;;;;;;4978676;28;90277;-32
2023/10/13 01:55:57;;;;;;;52.78;34.55;;;16.30;99.90;;;;;;4978204;28;89722;-33
2023/10/13 01:58:26;;;;;;;51.25;33.40;;;16.30;99.90;;;;;;4978029;28;89961;-33
2023/10/13 02:00:52;;;;;;;50.78;32.95;;;16.30;99.90;;;;;;4978317;28;90092;-33
2023/10/13 02:03:18;;;;;;;54.78;32.22;;;16.30;99.90;;;;;;4978335;28;90064;-33
2023/10/13 02:05:48;;;;;;;45.55;33.13;;;16.30;99.90;;;;;;4978385;28;89758;-33
2023/10/13 02:08:27;;;;;;;44.47;30.70;;;16.30;99.90;;;;;;4978232;28;90416;-32
2023/10/13 02:10:54;;;;;;;48.17;30.17;;;16.30;99.90;;;;;;4979275;28;91197;-32
2023/10/13 02:13:22;;;;;;;40.58;28.02;;;16.30;99.90;;;;;;4978591;28;90310;-33
2023/10/13 02:15:51;;;;;;;43.77;30.30;;;16.30;99.90;;;;;;4978410;28;93144;-31
2023/10/13 02:18:26;;;;;;;40.20;28.25;;;16.30;99.90;;;;;;4978355;28;89752;-36
2023/10/13 02:21:04;;;;;;;34.88;26.15;;;16.30;99.90;;;;;;4978976;28;90061;-32
2023/10/13 02:23:30;;;;;;;;;;;16.30;99.90;;;;;;4978728;28;90801;-33
2023/10/13 02:26:10;;;;;;;39.25;27.60;;;16.30;99.90;;;;;;4980798;28;88462;-32
2023/10/13 02:28:36;;;;;;;36.72;27.30;;;16.30;99.90;;;;;;4965639;28;90727;-34
2023/10/13 02:31:03;;;;;;;36.08;27.13;;;16.30;99.90;;;;;;4978565;28;89391;-31
2023/10/13 02:33:29;;;;;;;36.40;26.63;;;16.30;99.90;;;;;;4978848;28;89446;-33
2023/10/13 02:35:57;;;;;;;37.63;25.67;;;16.30;99.90;;;;;;4960410;28;88243;-34
2023/10/13 02:38:28;;;;;;;41.08;27.08;;;16.30;99.90;;;;;;4979226;28;89962;-33
2023/10/13 02:40:54;;;;;;;37.20;27.52;;;16.30;99.90;;;;;;4977000;28;90896;-34
2023/10/13 02:43:23;;;;;;;33.78;25.20;;;16.30;99.90;;;;;;4978497;28;90023;-32
2023/10/13 02:45:57;;;;;;;;;;;16.30;99.90;;;;;;4966155;28;88074;-32
2023/10/13 02:48:23;;;;;;;37.35;26.40;;;16.30;99.90;;;;;;4980741;28;90110;-34
2023/10/13 02:50:57;;;;;;;35.05;26.75;;;16.30;99.90;;;;;;4976908;28;89537;-34
2023/10/13 02:53:22;;;;;;;40.53;26.38;;;16.30;99.90;;;;;;4977840;28;89627;-33
2023/10/13 02:55:52;;;;;;;37.00;25.65;;;16.30;99.90;;;;;;4977649;28;88449;-31
2023/10/13 02:58:18;;;;;;;36.67;24.08;;;16.30;99.90;;;;;;4978256;28;90282;-33
2023/10/13 03:00:46;;;;;;;32.92;23.40;;;16.30;99.90;;;;;;4978727;28;90231;-33
2023/10/13 03:03:14;;;;;;;31.25;23.58;;;16.30;99.90;;;;;;4977374;28;89473;-34
2023/10/13 03:05:42;;;;;;;;;;;16.30;99.90;;;;;;4977700;28;90155;-33
2023/10/13 03:08:09;;;;;;;37.53;24.08;;;16.30;99.90;;;;;;4980373;28;90453;-35
2023/10/13 03:10:39;;;;;;;36.30;24.13;;;16.30;99.90;;;;;;4977850;28;89251;-35
2023/10/13 03:13:08;;;;;;;32.65;22.90;;;16.30;99.90;;;;;;4979040;28;89839;-33
2023/10/13 03:15:35;;;;;;;31.30;22.50;;;16.30;99.90;;;;;;4978548;28;89446;-33
2023/10/13 03:18:02;;;;;;;32.23;24.33;;;16.30;99.90;;;;;;4978514;28;89154;-33
2023/10/13 03:20:34;;;;;;;39.35;25.85;;;16.30;99.90;;;;;;4977531;28;89092;-35
2023/10/13 03:23:00;;;;;;;32.50;23.48;;;16.30;99.90;;;;;;4977439;28;88780;-34
2023/10/13 03:25:29;;;;;;;36.33;23.58;;;16.30;99.90;;;;;;4978248;28;88333;-33
2023/10/13 03:30:34;;;;;;;31.33;22.02;;;16.30;99.90;;;;;;4976547;28;92376;-32
2023/10/13 03:33:01;;;;;;;30.02;21.77;;;16.30;99.90;;;;;;4959250;28;90077;-32
2023/10/13 03:35:37;;;;;;;27.95;21.15;;;16.40;99.90;;;;;;4978174;28;90221;-32
2023/10/13 03:38:03;;;;;;;35.20;23.02;;;16.40;99.90;;;;;;4975235;28;90133;-34
2023/10/13 03:43:06;;;;;;;34.83;23.08;;;16.30;99.90;;;;;;4976156;28;89072;-34
2023/10/13 03:45:39;;;;;;;26.70;20.55;;;16.30;99.90;;;;;;4976975;28;89290;-30
2023/10/13 03:48:09;;;;;;;29.08;23.23;;;16.30;99.90;;;;;;4976628;28;89003;-32
2023/10/13 03:50:36;;;;;;;35.42;23.83;;;16.30;99.90;;;;;;4977455;28;89636;-34
2023/10/13 03:53:02;;;;;;;31.63;23.95;;;16.40;99.90;;;;;;4977140;28;89658;-35
2023/10/13 03:55:34;;;;;;;31.70;23.13;;;16.40;99.90;;;;;;4959366;28;90527;-33
2023/10/13 03:58:00;;;;;;;31.80;24.42;;;16.30;99.90;;;;;;4960089;28;90494;-34
2023/10/13 04:00:27;;;;;;;34.75;22.88;;;16.30;99.90;;;;;;4977683;28;89922;-33
2023/10/13 04:03:57;;;;;;;31.58;22.88;;;16.30;99.90;;;;;;4962389;28;90369;-32
2023/10/13 04:05:45;;;;;;;33.88;23.05;;;16.40;99.90;;;;;;4972145;28;90209;-32
2023/10/13 04:08:46;;;;;;;33.72;24.13;;;16.40;99.90;;;;;;4980440;28;90378;-31
2023/10/13 04:14:23;;;;;;;29.13;23.38;;;16.40;99.90;;;;;;4980651;28;89672;-33
2023/10/13 04:16:36;;;;;;;31.85;24.10;;;16.40;99.90;;;;;;4979242;28;88524;-31
2023/10/13 04:21:41;;;;;;;29.10;23.15;;;16.40;99.90;;;;;;4979442;28;90447;-34
2023/10/13 04:29:50;;;;;;;33.05;23.35;;;16.40;99.90;;;;;;4961613;28;92120;-35
2023/10/13 04:32:28;;;;;;;31.52;23.02;;;16.40;99.90;;;;;;4953889;28;89784;-34
2023/10/13 04:40:35;;;;;;;24.63;20.70;;;16.40;99.90;;;;;;4981035;28;89200;-32
2023/10/13 04:43:32;;;;;;;26.77;21.05;;;16.30;99.90;;;;;;4979404;28;89574;-32
2023/10/13 04:45:55;;;;;;;23.70;18.77;;;16.30;99.90;;;;;;4962060;28;90375;-34
2023/10/13 04:50:58;;;;;;;;;;;16.30;99.90;;;;;;4969455;28;90572;-32
2023/10/13 04:53:33;;;;;;;28.80;20.35;;;16.30;99.90;;;;;;4982326;28;89217;-34
2023/10/13 06:31:05;;;;;;;13.52;9.95;;;16.20;99.90;;;;;;4956564;28;89675;-34
2023/10/13 06:33:36;;;;;;;12.60;9.00;;;16.20;99.90;;;;;;4946306;28;88798;-33
2023/10/13 06:36:09;;;;;;;11.38;9.43;;;16.20;99.90;;;;;;4951815;28;91260;-33
2023/10/13 06:38:36;;;;;;;12.98;9.75;;;16.20;99.90;;;;;;4956259;28;90302;-31
2023/10/13 06:41:05;;;;;;;13.73;9.35;;;16.20;99.90;;;;;;4942620;28;89604;-34
2023/10/13 06:43:42;;;;;;;13.60;9.88;;;16.20;99.90;;;;;;4948815;28;89589;-32
2023/10/13 06:46:14;;;;;;;11.90;9.90;;;16.20;99.90;;;;;;4955780;28;89320;-35
2023/10/13 06:48:40;;;;;;;12.38;10.80;;;16.20;99.90;;;;;;4956370;28;90433;-34
2023/10/13 06:51:39;;;;;;;10.80;9.70;;;16.20;99.90;;;;;;4956662;28;89726;-31
2023/10/13 06:53:58;;;;;;;12.10;9.07;;;16.20;99.90;;;;;;4966321;28;89665;-34
2023/10/13 06:56:29;;;;;;;9.73;8.63;;;16.30;99.90;;;;;;4957871;28;88965;-34
2023/10/13 06:58:59;;;;;;;9.45;8.55;;;16.30;99.90;;;;;;4956608;28;89689;-33
2023/10/13 07:01:26;;;;;;;11.30;8.52;;;16.30;99.90;;;;;;4956341;28;90337;-32
2023/10/13 07:04:00;;;;;;;9.57;8.38;;;16.40;99.90;;;;;;4954649;28;90227;-33
2023/10/13 07:06:27;;;;;;;11.73;9.93;;;16.50;99.90;;;;;;4960891;28;89505;-34
2023/10/13 07:08:52;;;;;;;12.25;8.23;;;16.50;99.90;;;;;;4956162;28;91370;-32
2023/10/13 07:11:33;;;;;;;13.65;8.40;;;16.50;99.90;;;;;;4967618;28;89729;-34
2023/10/13 07:14:16;;;;;;;9.13;7.55;;;16.60;99.90;;;;;;4956921;28;88522;-33
2023/10/13 07:16:59;;;;;;;13.23;7.15;;;16.60;99.90;;;;;;4956839;28;89269;-34
2023/10/13 07:19:29;;;;;;;9.00;6.43;;;16.60;99.90;;;;;;4956995;28;89754;-34
2023/10/13 07:22:19;;;;;;;10.27;6.07;;;16.60;99.90;;;;;;4955511;28;89691;-34
2023/10/13 07:24:48;;;;;;;7.22;6.07;;;16.60;99.90;;;;;;4956419;28;90683;-32
2023/10/13 07:27:23;;;;;;;8.73;6.32;;;16.50;99.90;;;;;;4956893;28;90089;-32
2023/10/13 07:29:56;;;;;;;9.70;5.78;;;16.60;99.90;;;;;;4955106;28;89031;-34
2023/10/13 07:32:26;;;;;;;13.35;7.03;;;16.60;99.90;;;;;;4957089;28;89461;-33
2023/10/13 07:34:58;;;;;;;12.52;7.05;;;16.60;99.90;;;;;;4956303;28;89640;-35
2023/10/13 07:37:29;;;;;;;6.25;5.40;;;16.50;99.90;;;;;;4955607;28;88658;-36
2023/10/13 07:39:58;;;;;;;10.88;6.93;;;16.60;99.90;;;;;;4956355;28;89062;-32
2023/10/13 07:42:39;;;;;;;9.45;6.43;;;16.50;99.90;;;;;;4967620;28;90172;-34
2023/10/13 07:45:06;;;;;;;8.93;6.00;;;16.50;99.90;;;;;;4956918;28;89312;-32
2023/10/13 07:47:33;;;;;;;10.80;7.13;;;16.50;99.90;;;;;;4956829;28;87664;-33
2023/10/13 07:49:59;;;;;;;8.98;6.38;;;16.60;99.90;;;;;;4956994;28;88490;-34
2023/10/13 07:52:27;;;;;;;5.72;5.10;;;16.60;99.90;;;;;;4954930;28;90946;-35
2023/10/13 07:55:38;;;;;;;10.65;7.05;;;16.60;99.90;;;;;;4954829;28;90367;-34
2023/10/13 07:57:53;;;;;;;9.32;7.28;;;16.60;99.90;;;;;;4942261;28;88805;-34
2023/10/13 08:00:46;;;;;;;9.73;7.25;;;16.60;99.90;;;;;;4954495;28;90314;-34
2023/10/13 08:08:40;;;;;;;11.13;7.03;;;16.60;99.90;;;;;;4954905;28;88354;-33
2023/10/13 08:13:53;;;;;;;12.93;8.73;;;16.60;99.90;;;;;;4955289;28;89578;-33
2023/10/13 08:16:27;;;;;;;9.00;7.38;;;16.70;99.90;;;;;;4972675;28;90449;-34
2023/10/13 08:18:53;;;;;;;18.40;8.43;;;16.70;99.90;;;;;;4955748;28;90290;-34
2023/10/13 08:21:22;;;;;;;22.25;8.98;;;16.70;99.90;;;;;;4955329;28;90633;-33
2023/10/13 08:34:38;;;;;;;14.52;9.00;;;16.80;99.90;;;;;;4958556;28;89664;-35
2023/10/13 08:37:22;;;;;;;11.13;7.60;;;16.80;99.90;;;;;;4955753;28;89328;-33
2023/10/13 08:45:52;;;;;;;13.50;7.90;;;16.80;99.90;;;;;;4954554;28;91083;-33
2023/10/13 08:48:08;;;;;;;15.60;9.15;;;16.80;99.90;;;;;;4947851;28;90420;-31
2023/10/13 08:56:07;;;;;;;13.93;8.82;;;16.90;99.90;;;;;;4946757;28;89687;-34
2023/10/13 09:14:58;;;;;;;10.55;8.85;;;17.50;99.90;;;;;;4958291;28;92036;-35
2023/10/13 09:17:35;;;;;;;9.95;8.50;;;17.50;99.90;;;;;;4965371;28;89423;-32
2023/10/13 09:25:35;;;;;;;11.68;9.00;;;17.70;99.90;;;;;;4957388;28;90138;-33
2023/10/13 09:28:25;;;;;;;12.95;9.18;;;17.70;99.90;;;;;;4957713;28;89590;-32
2023/10/13 09:30:57;;;;;;;10.80;8.02;;;17.80;99.90;;;;;;4950389;28;89640;-33
2023/10/13 09:33:35;;;;;;;16.63;7.55;;;17.90;99.90;;;;;;4958162;28;89368;-32
2023/10/13 09:36:04;;;;;;;13.20;8.23;;;17.90;99.90;;;;;;4956909;28;90025;-32
2023/10/13 09:38:32;;;;;;;10.48;7.63;;;18.00;99.90;;;;;;4957526;28;90435;-32
2023/10/13 09:41:01;;;;;;;;;;;18.00;99.90;;;;;;4958216;28;90594;-31
2023/10/13 09:43:30;;;;;;;18.08;9.32;;;18.00;99.90;;;;;;4958189;28;89408;-35
2023/10/13 09:46:02;;;;;;;11.48;9.77;;;18.00;99.90;;;;;;4956228;28;91638;-32
2023/10/13 09:48:35;;;;;;;13.73;8.35;;;18.00;99.90;;;;;;4958857;28;90355;-35
2023/10/13 09:51:08;;;;;;;12.02;7.95;;;18.00;99.90;;;;;;4956266;28;90004;-32
2023/10/13 09:53:37;;;;;;;10.20;8.63;;;18.00;99.90;;;;;;4957902;28;88437;-34
2023/10/13 09:56:19;;;;;;;20.95;9.88;;;18.10;99.90;;;;;;4958108;28;90371;-31
2023/10/13 09:59:12;;;;;;;12.25;7.45;;;18.10;99.90;;;;;;4956062;28;89857;-31
2023/10/13 10:01:50;;;;;;;10.57;8.20;;;18.10;99.90;;;;;;4958015;28;89798;-32
2023/10/13 10:04:18;;;;;;;11.10;8.30;;;18.20;99.90;;;;;;4957125;28;88913;-32
2023/10/13 10:06:57;;;;;;;13.57;8.65;;;18.20;99.90;;;;;;4956233;28;89042;-35
2023/10/13 10:09:34;;;;;;;12.93;8.65;;;18.30;99.90;;;;;;4957612;28;89658;-35
2023/10/13 10:12:25;;;;;;;13.27;7.70;;;18.30;99.90;;;;;;4969755;28;89447;-34
2023/10/13 10:15:10;;;;;;;10.20;7.90;;;18.30;99.90;;;;;;4970742;28;89215;-36
2023/10/13 10:17:43;;;;;;;19.80;9.68;;;18.40;99.90;;;;;;4954838;28;90757;-33
2023/10/13 10:20:19;;;;;;;19.13;8.95;;;18.40;99.90;;;;;;4958795;28;90081;-33
2023/10/13 10:23:00;;;;;;;10.68;7.65;;;18.50;99.90;;;;;;4957566;28;89614;-34
2023/10/13 10:25:35;;;;;;;17.98;8.82;;;18.50;99.90;;;;;;4968365;28;89593;-32
2023/10/13 10:28:15;;;;;;;18.00;9.27;;;18.50;99.90;;;;;;4957350;28;91232;-32
2023/10/13 10:30:42;;;;;;;17.02;8.05;;;18.50;99.90;;;;;;4964585;28;90165;-34
2023/10/13 10:33:12;;;;;;;16.35;9.45;;;18.60;99.90;;;;;;4974640;28;90328;-34
2023/10/13 10:35:43;;;;;;;12.70;8.77;;;18.60;99.90;;;;;;4966468;28;88841;-34
2023/10/13 10:38:58;;;;;;;14.27;7.85;;;18.70;99.90;;;;;;4960659;28;89432;-33
2023/10/13 10:41:04;;;;;;;15.10;7.35;;;18.70;99.90;;;;;;4969480;28;89823;-33
2023/10/13 10:43:42;;;;;;;10.85;7.75;;;18.70;99.90;;;;;;4950402;28;88848;-34
2023/10/13 10:46:13;;;;;;;18.98;8.80;;;18.80;99.90;;;;;;4963078;28;89161;-35
2023/10/13 10:48:45;;;;;;;13.60;7.65;;;18.80;99.90;;;;;;4964178;28;89067;-33
2023/10/13 10:51:21;;;;;;;12.60;7.65;;;18.80;99.90;;;;;;4966367;28;90139;-32
2023/10/13 10:53:52;;;;;;;8.82;6.80;;;18.80;99.90;;;;;;4961592;28;89987;-34
2023/10/13 10:56:37;;;;;;;10.07;8.05;;;18.80;99.90;;;;;;4960503;28;89082;-34
2023/10/13 10:59:05;;;;;;;15.73;8.63;;;18.90;99.90;;;;;;4956648;28;91254;-34
2023/10/13 11:01:46;;;;;;;;;;;18.90;99.90;;;;;;4957544;28;91448;-34
2023/10/13 11:07:06;;;;;;;13.75;8.32;;;18.90;99.90;;;;;;4941100;28;87670;-33
2023/10/13 11:12:14;;;;;;;15.70;8.75;;;19.00;99.90;;;;;;4973726;28;89728;-33
2023/10/13 11:14:40;;;;;;;14.98;7.93;;;19.00;99.90;;;;;;4975786;28;90396;-36
2023/10/13 11:17:18;;;;;;;11.93;8.07;;;19.00;99.90;;;;;;4976087;28;88759;-33
2023/10/13 11:19:44;;;;;;;12.40;7.63;;;19.00;99.90;;;;;;4968397;28;89890;-32
2023/10/13 11:25:10;;;;;;;12.23;8.00;;;19.10;99.90;;;;;;4964488;28;90565;-34
2023/10/13 11:30:19;;;;;;;19.35;8.77;;;19.10;99.90;;;;;;4954363;28;90193;-33
2023/10/13 11:32:46;;;;;;;11.70;8.75;;;19.20;99.90;;;;;;4955457;28;89836;-32
2023/10/13 11:35:20;;;;;;;14.00;8.63;;;19.20;99.90;;;;;;4955295;28;89511;-32
2023/10/13 11:37:56;;;;;;;13.82;7.00;;;19.30;99.90;;;;;;4968933;28;88188;-32
2023/10/13 11:40:43;;;;;;;17.13;8.43;;;19.30;99.90;;;;;;4957872;28;90418;-33
2023/10/13 11:43:14;;;;;;;12.75;7.68;;;19.30;99.90;;;;;;4964389;28;89428;-33
2023/10/13 11:48:43;;;;;;;13.60;7.05;;;19.40;99.90;;;;;;4841005;28;89179;-35
2023/10/13 11:51:31;;;;;;;17.63;8.30;;;19.50;99.90;;;;;;4915885;28;90617;-34
2023/10/13 11:53:58;;;;;;;14.85;7.60;;;19.70;99.90;;;;;;4935290;28;90238;-34
2023/10/13 11:56:24;;;;;;;26.25;8.30;;;19.70;99.90;;;;;;4918259;28;89543;-35
2023/10/13 11:58:50;;;;;;;19.70;9.75;;;19.70;99.90;;;;;;4936981;28;89535;-33
2023/10/13 12:01:20;;;;;;;12.95;8.90;;;19.80;99.90;;;;;;4936944;28;90353;-35
2023/10/13 12:12:26;;;;;;;10.50;8.98;;;19.80;99.90;;;;;;4903385;28;90371;-35
2023/10/13 12:14:52;;;;;;;15.30;9.02;;;19.70;99.90;;;;;;4934803;28;89719;-35
2023/10/13 12:17:27;;;;;;;15.63;9.73;;;19.70;99.90;;;;;;4949154;28;90337;-34
2023/10/13 12:19:54;;;;;;;11.98;8.95;;;19.60;99.90;;;;;;4935563;28;89583;-32
2023/10/13 12:22:35;;;;;;;13.55;7.85;;;19.60;99.90;;;;;;4919286;28;91944;-34
2023/10/13 12:25:04;;;;;;;17.85;8.95;;;19.60;99.90;;;;;;4938096;28;90644;-33
2023/10/13 12:27:45;;;;;;;18.60;8.25;;;19.60;99.90;;;;;;4939209;28;90131;-32
2023/10/13 12:30:13;;;;;;;14.05;8.77;;;19.60;99.90;;;;;;4945816;28;89244;-34
2023/10/13 12:32:44;;;;;;;9.88;7.95;;;19.60;99.90;;;;;;4942926;28;89026;-34
2023/10/13 12:48:56;;;;;;;20.63;9.02;;;19.70;99.90;;;;;;4958247;28;88507;-33
2023/10/13 12:53:54;;;;;;;13.15;7.97;;;19.70;99.90;;;;;;4959047;28;90302;-33
2023/10/13 12:56:26;;;;;;;18.25;9.43;;;19.70;99.90;;;;;;4967142;28;89663;-35
2023/10/13 12:58:53;;;;;;;12.00;8.40;;;19.80;99.90;;;;;;4964316;28;89638;-33
2023/10/13 13:01:24;;;;;;;12.50;8.30;;;19.80;99.90;;;;;;4966804;28;89266;-33
2023/10/13 13:03:50;;;;;;;13.88;8.23;;;19.90;99.90;;;;;;4962928;28;90681;-35
2023/10/13 13:06:29;;;;;;;18.23;7.60;;;20.00;99.90;;;;;;4976079;28;90065;-35
2023/10/13 13:09:00;;;;;;;24.52;9.68;;;20.00;99.90;;;;;;4946959;28;90147;-35
2023/10/13 13:11:29;;;;;;;16.58;9.00;;;20.00;99.90;;;;;;4969070;28;89992;-33
2023/10/13 13:13:55;;;;;;;14.98;10.13;;;20.10;99.90;;;;;;4959337;28;89869;-32
2023/10/13 13:16:24;;;;;;;19.85;8.98;;;20.10;99.90;;;;;;4958023;28;90112;-32
2023/10/13 13:18:50;;;;;;;12.20;8.32;;;20.00;99.90;;;;;;4957533;28;89534;-34
2023/10/13 13:21:25;;;;;;;12.98;8.90;;;20.10;99.90;;;;;;4958754;28;88387;-34
2023/10/13 13:23:51;;;;;;;14.80;10.38;;;20.10;99.90;;;;;;4954371;28;90153;-34
2023/10/13 13:26:17;;;;;;;19.02;9.30;;;20.10;99.90;;;;;;4961401;28;89876;-34
2023/10/13 13:28:50;;;;;;;11.88;8.70;;;20.10;99.90;;;;;;4958950;28;89288;-32
2023/10/13 13:31:28;;;;;;;13.13;8.88;;;20.10;99.90;;;;;;4957916;28;89545;-35
2023/10/13 13:33:54;;;;;;;13.23;7.65;;;20.10;99.90;;;;;;4956526;28;91512;-33
2023/10/13 13:36:22;;;;;;;17.90;9.80;;;20.20;99.90;;;;;;4958184;28;90022;-33
2023/10/13 13:38:54;;;;;;;24.77;9.27;;;20.10;99.90;;;;;;4958740;28;89047;-33
2023/10/13 13:41:21;;;;;;;14.68;8.27;;;20.10;99.90;;;;;;4957674;28;89698;-36
2023/10/13 13:43:54;;;;;;;13.60;7.90;;;20.10;99.90;;;;;;4958453;28;90115;-32
2023/10/13 13:46:24;;;;;;;17.60;9.43;;;20.10;99.90;;;;;;4945292;28;89568;-34
2023/10/13 13:48:51;;;;;;;15.38;7.97;;;20.10;99.90;;;;;;4958245;28;89391;-32
2023/10/13 13:51:26;;;;;;;14.90;9.10;;;20.00;99.90;;;;;;4957991;28;89848;-34
2023/10/13 13:53:52;;;;;;;19.02;8.35;;;20.00;99.90;;;;;;4957534;28;89993;-34
2023/10/13 13:56:19;;;;;;;19.70;9.82;;;19.90;99.90;;;;;;4957419;28;90585;-33
2023/10/13 13:58:49;;;;;;;14.15;8.35;;;19.90;99.90;;;;;;4958316;28;91229;-32
2023/10/13 14:01:17;;;;;;;14.60;8.80;;;19.70;99.90;;;;;;4956918;28;88114;-31
2023/10/13 14:03:46;;;;;;;14.57;10.65;;;19.60;99.90;;;;;;4958088;28;89250;-35
2023/10/13 14:06:18;;;;;;;19.52;9.45;;;19.50;99.90;;;;;;4958573;28;89363;-35
2023/10/13 14:08:48;;;;;;;20.10;9.10;;;19.40;99.90;;;;;;4956085;28;90036;-34
2023/10/13 14:14:04;;;;;;;13.75;8.80;;;19.20;99.90;;;;;;4958063;28;90060;-33
2023/10/13 14:16:33;;;;;;;14.38;10.75;;;19.10;99.90;;;;;;4957778;28;89834;-34
2023/10/13 14:19:01;;;;;;;13.48;8.70;;;19.10;99.90;;;;;;4970389;28;89342;-34
2023/10/13 14:21:27;;;;;;;20.20;9.63;;;19.10;99.90;;;;;;4970583;28;90437;-31
2023/10/13 14:23:53;;;;;;;20.98;10.70;;;19.10;99.90;;;;;;4956584;28;90409;-34
2023/10/13 14:26:21;;;;;;;18.90;8.82;;;19.10;99.90;;;;;;4957085;28;89645;-34
2023/10/13 14:28:51;;;;;;;13.60;8.30;;;19.10;99.90;;;;;;4954420;28;89721;-33
2023/10/13 14:31:20;;;;;;;18.50;9.98;;;19.10;99.90;;;;;;4957679;28;88887;-34
2023/10/13 14:33:47;;;;;;;16.52;9.63;;;19.10;99.90;;;;;;4950531;28;89901;-32
2023/10/13 14:36:13;;;;;;;20.30;10.60;;;19.00;99.90;;;;;;4963278;28;89901;-34
2023/10/13 14:38:40;;;;;;;14.45;11.18;;;19.10;99.90;;;;;;4957357;28;89468;-32
2023/10/13 14:41:05;;;;;;;22.52;10.93;;;19.00;99.90;;;;;;4956789;28;87831;-32
2023/10/13 14:43:31;;;;;;;15.10;9.80;;;19.00;99.90;;;;;;4964406;28;90402;-31
2023/10/13 14:45:57;;;;;;;16.77;9.43;;;19.00;99.90;;;;;;4974191;28;90755;-34
2023/10/13 14:48:25;;;;;;;13.30;10.90;;;19.10;99.90;;;;;;4976756;28;90030;-34
2023/10/13 14:50:50;;;;;;;19.48;8.90;;;19.10;99.90;;;;;;4965314;28;88807;-34
2023/10/13 14:53:19;;;;;;;15.23;10.18;;;19.10;99.90;;;;;;4977190;28;88915;-32
2023/10/13 14:55:45;;;;;;;18.13;9.80;;;19.10;99.90;;;;;;4975770;28;89883;-33
2023/10/13 14:58:15;;;;;;;16.88;10.10;;;19.00;99.90;;;;;;4969051;28;90216;-33
2023/10/13 15:00:45;;;;;;;11.57;9.10;;;19.00;99.90;;;;;;4961754;28;88351;-33
2023/10/13 15:03:11;;;;;;;18.65;10.25;;;19.00;99.90;;;;;;4959091;28;90223;-35
2023/10/13 15:05:43;;;;;;;15.73;10.18;;;19.00;99.90;;;;;;4958911;28;89753;-35
2023/10/13 15:08:09;;;;;;;16.75;9.65;;;18.90;99.90;;;;;;4958908;28;89256;-34
2023/10/13 15:10:36;;;;;;;14.30;10.30;;;18.80;99.90;;;;;;4964711;28;90403;-33
2023/10/13 15:13:05;;;;;;;17.23;11.33;;;18.80;99.90;;;;;;4975597;28;89921;-32
2023/10/13 15:15:32;;;;;;;29.35;12.60;;;18.70;99.90;;;;;;4974125;28;89981;-34
2023/10/13 15:17:58;;;;;;;25.25;11.23;;;18.60;99.90;;;;;;4974295;28;89844;-35
2023/10/13 15:20:23;;;;;;;19.17;11.85;;;18.40;99.90;;;;;;4975744;28;89162;-32
2023/10/13 15:22:49;;;;;;;18.10;11.30;;;18.40;99.90;;;;;;4961408;28;90698;-33
2023/10/13 15:25:21;;;;;;;20.20;12.00;;;18.30;99.90;;;;;;4957428;28;89104;-33
2023/10/13 15:27:55;;;;;;;20.45;13.45;;;18.20;99.90;;;;;;4956509;28;90021;-31
2023/10/13 15:30:30;;;;;;;17.35;11.93;;;18.20;99.90;;;;;;4955716;28;88844;-34
2023/10/13 15:32:57;;;;;;;17.00;11.23;;;18.10;99.90;;;;;;4955696;28;88933;-35
2023/10/13 15:35:28;;;;;;;21.08;10.18;;;18.10;99.90;;;;;;4955968;28;90157;-32
2023/10/13 15:37:55;;;;;;;27.88;12.50;;;18.10;99.90;;;;;;4952387;28;90074;-31
2023/10/13 15:40:21;;;;;;;22.50;11.93;;;18.00;99.90;;;;;;4956189;28;88934;-34
2023/10/13 15:42:46;;;;;;;14.82;11.23;;;18.00;99.90;;;;;;4955372;28;90076;-34
2023/10/13 15:45:19;;;;;;;20.98;11.65;;;18.00;99.90;;;;;;4954411;28;89604;-36
2023/10/13 15:47:48;;;;;;;25.85;11.43;;;18.00;99.90;;;;;;4955201;28;91021;-34
2023/10/13 15:50:20;;;;;;;14.82;10.43;;;18.00;99.90;;;;;;4955343;28;87940;-32
2023/10/13 15:52:46;;;;;;;20.65;10.90;;;17.90;99.90;;;;;;4943755;28;89136;-31
2023/10/13 15:55:13;;;;;;;18.70;10.07;;;17.90;99.90;;;;;;4955582;28;89592;-35
2023/10/13 15:57:41;;;;;;;21.15;11.20;;;17.90;99.90;;;;;;4957663;28;89712;-33
2023/10/13 16:00:23;;;;;;;14.88;10.68;;;17.90;99.90;;;;;;4958554;28;89581;-33
2023/10/13 16:02:56;;;;;;;20.50;11.32;;;17.90;99.90;;;;;;4958553;28;90429;-34
2023/10/13 16:05:29;;;;;;;16.75;10.35;;;17.90;99.90;;;;;;4958903;28;89731;-34
2023/10/13 16:07:54;;;;;;;17.08;9.30;;;17.90;99.90;;;;;;4958596;28;89309;-33
2023/10/13 16:10:23;;;;;;;16.85;9.90;;;17.90;99.90;;;;;;4961909;28;88717;-32
2023/10/13 16:12:49;;;;;;;16.75;10.32;;;17.90;99.90;;;;;;4968481;28;90832;-32
2023/10/13 16:15:14;;;;;;;18.02;8.75;;;17.80;99.90;;;;;;4958356;28;89844;-35
2023/10/13 16:17:41;;;;;;;15.70;9.15;;;17.80;99.90;;;;;;4959601;28;89473;-35
2023/10/13 16:20:15;;;;;;;14.30;8.13;;;17.80;99.90;;;;;;4960298;28;88431;-35
2023/10/13 16:22:46;;;;;;;13.07;7.63;;;17.80;99.90;;;;;;4958431;28;90171;-32
2023/10/13 16:25:13;;;;;;;11.40;7.50;;;17.80;99.90;;;;;;4953642;28;90358;-32
2023/10/13 16:27:41;;;;;;;13.83;7.87;;;17.80;99.90;;;;;;4952000;28;91060;-33
2023/10/13 16:30:09;;;;;;;12.57;8.18;;;17.80;99.90;;;;;;4964368;28;88459;-34
2023/10/13 16:32:36;;;;;;;12.98;8.23;;;17.80;99.90;;;;;;4964712;28;90693;-33
2023/10/13 16:35:05;;;;;;;13.45;9.52;;;17.80;99.90;;;;;;4959656;28;88727;-34
2023/10/13 16:37:31;;;;;;;14.98;10.40;;;17.80;99.90;;;;;;4958633;28;89477;-33